createdAt,value
2018-07-04T00:00:38.565Z,0.50
2018-07-04T00:03:18.388Z,0.77
2018-07-04T00:05:58.039Z,0.80
2018-07-04T00:08:37.692Z,1.30
2018-07-04T00:11:11.299Z,1.27
2018-07-04T00:13:44.836Z,1.40
2018-07-04T00:16:24.374Z,0.90
2018-07-04T00:19:04.127Z,0.87
2018-07-04T00:21:43.651Z,0.70
2018-07-04T00:24:23.191Z,1.00
2018-07-04T00:27:02.848Z,0.90
2018-07-04T00:29:42.415Z,0.80
2018-07-04T00:32:22.045Z,0.90
2018-07-04T00:35:01.702Z,0.90
2018-07-04T00:37:41.244Z,0.70
2018-07-04T01:28:35.487Z,1.87
2018-07-04T01:31:15.126Z,1.60
2018-07-04T01:33:54.792Z,1.23
2018-07-04T01:36:34.336Z,1.00
2018-07-04T01:39:14.025Z,1.00
2018-07-04T01:41:53.588Z,1.00
2018-07-04T01:44:33.315Z,1.03
2018-07-04T01:47:12.977Z,0.63
2018-07-04T01:49:52.514Z,1.23
2018-07-04T01:52:32.142Z,1.67
2018-07-04T01:55:11.644Z,1.23
2018-07-04T01:57:51.115Z,1.00
2018-07-04T02:00:30.748Z,0.90
2018-07-04T02:03:10.352Z,0.93
2018-07-04T02:05:50.042Z,1.40
2018-07-04T02:08:29.735Z,1.03
2018-07-04T02:11:09.163Z,1.70
2018-07-04T02:13:48.863Z,1.30
2018-07-04T02:16:28.426Z,1.57
2018-07-04T02:19:07.933Z,1.50
2018-07-04T02:21:47.708Z,1.00
2018-07-04T02:24:27.401Z,1.47
2018-07-04T02:27:07.153Z,1.87
2018-07-04T02:29:46.702Z,1.40
2018-07-04T02:32:26.231Z,1.83
2018-07-04T02:35:05.899Z,1.57
2018-07-04T02:37:45.585Z,1.57
2018-07-04T02:40:19.341Z,0.90
2018-07-04T02:42:59.393Z,1.03
2018-07-04T02:45:38.927Z,0.80
2018-07-04T02:48:18.630Z,1.20
2018-07-04T02:50:58.817Z,0.87
2018-07-04T02:53:38.464Z,0.90
2018-07-04T02:56:18.036Z,1.30
2018-07-04T02:58:57.555Z,1.73
2018-07-04T03:01:37.312Z,1.43
2018-07-04T03:04:17.329Z,1.10
2018-07-04T03:06:56.856Z,1.10
2018-07-04T03:09:36.414Z,1.50
2018-07-04T03:12:15.921Z,2.07
2018-07-04T03:14:55.443Z,1.30
2018-07-04T03:17:35.365Z,1.30
2018-07-04T03:20:14.898Z,1.60
2018-07-04T03:22:48.501Z,1.40
2018-07-04T03:25:28.117Z,1.33
2018-07-04T03:28:07.781Z,1.30
2018-07-04T03:30:47.487Z,1.30
2018-07-04T03:33:27.183Z,1.10
2018-07-04T03:36:06.729Z,1.07
2018-07-04T03:38:46.259Z,1.60
2018-07-04T03:41:25.807Z,1.23
2018-07-04T03:44:05.416Z,1.43
2018-07-04T03:46:45.076Z,1.27
2018-07-04T03:49:24.693Z,1.30
2018-07-04T03:52:04.412Z,1.63
2018-07-04T03:54:43.885Z,1.67
2018-07-04T03:57:23.560Z,1.30
2018-07-04T04:00:03.240Z,1.83
2018-07-04T04:02:42.781Z,1.70
2018-07-04T04:05:22.367Z,2.07
2018-07-04T04:08:01.965Z,1.77
2018-07-04T04:10:41.467Z,1.30
2018-07-04T04:13:21.186Z,1.30
2018-07-04T04:16:00.877Z,1.13
2018-07-04T04:18:40.493Z,1.50
2018-07-04T04:21:20.201Z,1.63
2018-07-04T04:23:59.780Z,1.40
2018-07-04T04:26:39.428Z,1.50
2018-07-04T04:29:19.158Z,1.40
2018-07-04T04:31:58.838Z,1.80
2018-07-04T04:34:38.387Z,1.67
2018-07-04T04:37:11.983Z,2.33
2018-07-04T04:39:51.471Z,1.80
2018-07-04T04:42:31.143Z,1.57
2018-07-04T04:45:10.885Z,2.03
2018-07-04T04:47:50.345Z,1.67
2018-07-04T04:50:30.061Z,1.80
2018-07-04T04:53:09.717Z,1.60
2018-07-04T04:55:49.384Z,2.10
2018-07-04T04:58:29.003Z,2.80
2018-07-04T05:01:08.575Z,2.77
2018-07-04T05:03:48.251Z,2.07
2018-07-04T05:06:27.921Z,1.80
2018-07-04T05:09:07.549Z,2.07
2018-07-04T05:11:47.196Z,2.40
2018-07-04T05:14:26.839Z,2.50
2018-07-04T05:17:06.511Z,2.53
2018-07-04T05:19:46.063Z,1.97
2018-07-04T05:22:25.545Z,1.70
2018-07-04T05:25:05.125Z,1.40
2018-07-04T05:27:44.607Z,2.23
2018-07-04T05:30:24.283Z,1.60
2018-07-04T05:33:04.321Z,1.23
2018-07-04T05:35:43.829Z,1.20
2018-07-04T05:38:23.239Z,2.77
2018-07-04T05:40:56.977Z,1.50
2018-07-04T05:43:36.466Z,1.73
2018-07-04T05:46:16.146Z,2.00
2018-07-04T05:48:55.797Z,1.17
2018-07-04T05:51:35.409Z,1.83
2018-07-04T05:54:15.122Z,2.27
2018-07-04T05:56:54.818Z,2.00
2018-07-04T05:59:34.313Z,2.23
2018-07-04T06:02:14.009Z,2.60
2018-07-04T06:04:47.737Z,2.00
2018-07-04T06:07:27.206Z,1.63
2018-07-04T06:10:06.885Z,2.57
2018-07-04T06:12:46.451Z,2.60
2018-07-04T06:15:26.086Z,2.53
2018-07-04T06:18:05.703Z,2.57
2018-07-04T06:20:45.288Z,2.53
2018-07-04T06:23:24.716Z,3.10
2018-07-04T06:26:04.477Z,2.57
2018-07-04T06:28:44.517Z,2.93
2018-07-04T06:31:24.207Z,1.87
2018-07-04T06:34:03.887Z,3.00
2018-07-04T06:36:37.507Z,2.40
2018-07-04T06:39:05.349Z,2.17
2018-07-04T06:41:32.620Z,2.83
2018-07-04T06:43:59.877Z,2.23
2018-07-04T06:46:27.159Z,3.00
2018-07-04T06:48:54.470Z,3.03
2018-07-04T06:51:21.777Z,2.70
2018-07-04T06:53:49.075Z,2.53
2018-07-04T06:56:16.606Z,2.57
2018-07-04T06:58:43.880Z,2.67
2018-07-04T07:01:11.181Z,2.70
2018-07-04T07:03:50.853Z,2.70
2018-07-04T07:06:30.525Z,2.70
2018-07-04T07:09:10.258Z,2.90
2018-07-04T07:11:50.282Z,3.20
2018-07-04T07:14:30.341Z,2.87
2018-07-04T07:17:09.921Z,3.80
2018-07-04T07:19:43.666Z,2.97
2018-07-04T07:22:23.277Z,3.97
2018-07-04T07:24:56.747Z,3.10
2018-07-04T07:27:36.327Z,2.60
2018-07-04T07:30:15.912Z,2.20
2018-07-04T07:32:55.536Z,2.27
2018-07-04T07:35:35.241Z,3.67
2018-07-04T07:38:14.977Z,2.37
2018-07-04T07:40:48.560Z,2.83
2018-07-04T07:43:28.104Z,3.47
2018-07-04T07:46:07.720Z,3.00
2018-07-04T07:48:47.405Z,2.90
2018-07-04T07:51:26.947Z,3.77
2018-07-04T07:54:00.656Z,2.33
2018-07-04T07:56:40.535Z,3.33
2018-07-04T07:59:20.080Z,2.67
2018-07-04T08:01:59.767Z,2.37
2018-07-04T09:26:48.799Z,2.03
2018-07-04T09:29:28.492Z,3.47
2018-07-04T09:32:08.197Z,2.63
2018-07-04T09:34:47.956Z,2.47
2018-07-04T09:37:27.414Z,3.00
2018-07-04T09:40:07.906Z,3.10
2018-07-04T09:42:47.345Z,2.30
2018-07-04T09:45:27.101Z,3.10
2018-07-04T09:48:06.811Z,2.43
2018-07-04T09:50:46.439Z,2.67
2018-07-04T09:53:26.030Z,2.40
2018-07-04T09:56:05.673Z,2.83
2018-07-04T09:58:45.317Z,2.87
2018-07-04T10:01:26.911Z,2.63
2018-07-04T10:04:06.528Z,2.80
2018-07-04T10:06:46.405Z,3.03
2018-07-04T10:09:27.260Z,2.63
2018-07-04T10:12:06.892Z,2.83
2018-07-04T10:14:46.315Z,3.17
2018-07-04T10:17:26.061Z,3.87
2018-07-04T10:20:05.808Z,3.33
2018-07-04T10:22:45.392Z,3.60
2018-07-04T10:25:18.920Z,3.30
2018-07-04T10:27:58.540Z,2.60
2018-07-04T10:30:38.100Z,2.87
2018-07-04T10:33:17.806Z,3.37
2018-07-04T10:35:51.516Z,3.10
2018-07-04T10:38:24.958Z,2.53
2018-07-04T10:41:04.556Z,2.80
2018-07-04T10:43:44.260Z,2.27
2018-07-04T10:46:23.946Z,2.00
2018-07-04T10:49:03.512Z,2.10
2018-07-04T10:51:43.151Z,2.30
2018-07-04T10:54:22.854Z,2.60
2018-07-04T10:57:02.385Z,1.97
2018-07-04T10:59:42.096Z,1.67
2018-07-04T11:02:21.551Z,1.80
2018-07-04T11:05:01.178Z,1.97
2018-07-04T11:07:40.757Z,1.60
2018-07-04T11:10:20.260Z,1.60
2018-07-04T11:12:59.776Z,1.40
2018-07-04T11:15:39.319Z,1.93
2018-07-04T11:18:18.930Z,1.43
2018-07-04T11:20:58.596Z,2.00
2018-07-04T11:23:32.258Z,1.73
2018-07-04T11:26:11.776Z,1.77
2018-07-04T11:28:51.469Z,1.53
2018-07-04T11:31:31.158Z,1.70
2018-07-04T11:34:15.267Z,1.47
2018-07-04T11:36:54.839Z,1.30
2018-07-04T11:39:34.411Z,1.73
2018-07-04T11:42:14.380Z,1.70
2018-07-04T11:44:53.948Z,1.87
2018-07-04T11:47:21.223Z,1.60
2018-07-04T11:49:48.492Z,1.47
2018-07-04T11:52:15.764Z,1.50
2018-07-04T11:54:43.045Z,1.80
2018-07-04T11:57:10.785Z,1.83
2018-07-04T11:59:38.053Z,1.73
2018-07-04T12:02:05.295Z,1.90
2018-07-04T12:04:44.841Z,1.50
2018-07-04T12:07:12.101Z,1.73
2018-07-04T12:09:40.243Z,1.80
2018-07-04T12:12:07.561Z,1.90
2018-07-04T12:14:35.195Z,1.90
2018-07-04T12:17:02.485Z,1.60
2018-07-04T12:19:29.781Z,2.20
2018-07-04T12:21:57.037Z,2.07
2018-07-04T12:24:24.296Z,2.07
2018-07-04T12:26:51.797Z,1.67
2018-07-04T12:29:19.061Z,2.27
2018-07-04T12:31:46.319Z,2.40
2018-07-04T12:34:13.602Z,1.70
2018-07-04T12:36:40.883Z,2.10
2018-07-04T12:39:08.141Z,1.87
2018-07-04T12:41:35.438Z,2.20
2018-07-04T12:44:02.711Z,2.43
2018-07-04T12:46:30.028Z,1.90
2018-07-04T12:49:02.429Z,1.93
2018-07-04T12:51:31.426Z,2.17
2018-07-04T12:54:04.045Z,1.70
2018-07-04T12:56:43.633Z,1.90
2018-07-04T12:59:23.271Z,1.90
2018-07-04T13:02:03.279Z,2.00
2018-07-04T13:04:43.305Z,1.60
2018-07-04T13:07:23.745Z,2.60
2018-07-04T13:10:03.320Z,2.07
2018-07-04T13:13:45.774Z,1.60
2018-07-04T13:16:25.350Z,1.90
2018-07-04T13:19:05.019Z,4.53
2018-07-04T13:21:44.559Z,1.90
2018-07-04T13:24:24.171Z,2.57
2018-07-04T13:26:57.818Z,1.90
2018-07-04T13:29:37.295Z,2.07
2018-07-04T13:32:17.405Z,2.30
2018-07-04T13:34:56.856Z,1.80
2018-07-04T13:37:30.319Z,2.83
2018-07-04T13:40:09.757Z,2.97
2018-07-04T13:42:49.473Z,2.27
2018-07-04T13:45:29.012Z,2.00
2018-07-04T13:48:08.725Z,2.40
2018-07-04T13:50:48.328Z,2.80
2018-07-04T13:53:27.947Z,2.70
2018-07-04T13:56:07.643Z,2.73
2018-07-04T13:58:47.337Z,2.47
2018-07-04T14:01:26.995Z,2.23
2018-07-04T14:04:06.679Z,2.20
2018-07-04T14:06:46.823Z,2.10
2018-07-04T14:09:26.458Z,2.80
2018-07-04T14:12:06.130Z,2.50
2018-07-04T14:14:45.659Z,2.77
2018-07-04T14:17:25.242Z,2.77
2018-07-04T14:20:04.944Z,2.30
2018-07-04T14:22:44.455Z,2.63
2018-07-04T14:25:24.144Z,2.47
2018-07-04T14:28:03.841Z,2.37
2018-07-04T14:30:43.415Z,2.60
2018-07-04T14:33:22.894Z,2.83
2018-07-04T14:36:02.494Z,2.50
2018-07-04T14:38:42.210Z,2.37
2018-07-04T14:41:21.788Z,2.03
2018-07-04T14:44:01.285Z,2.20
2018-07-04T14:46:40.937Z,2.37
2018-07-04T14:49:20.563Z,2.10
2018-07-04T14:52:00.174Z,1.93
2018-07-04T14:54:39.750Z,2.33
2018-07-04T14:57:19.358Z,2.27
2018-07-04T14:59:58.964Z,2.80
2018-07-04T15:02:38.641Z,1.73
2018-07-04T15:05:18.130Z,2.50
2018-07-04T15:07:57.816Z,2.03
2018-07-04T15:10:31.395Z,2.47
2018-07-04T15:13:04.966Z,1.80
2018-07-04T15:15:44.641Z,1.70
2018-07-04T15:18:24.244Z,1.50
2018-07-04T15:21:03.922Z,2.00
2018-07-04T15:23:43.959Z,1.20
2018-07-04T15:26:23.375Z,1.37
2018-07-04T15:29:03.106Z,1.33
2018-07-04T15:31:42.621Z,1.57
2018-07-04T15:34:16.151Z,1.33
2018-07-04T15:36:55.601Z,1.10
2018-07-04T15:39:35.283Z,1.60
2018-07-04T15:42:14.846Z,0.90
2018-07-04T15:44:54.612Z,1.00
2018-07-04T15:47:34.059Z,1.43
2018-07-04T15:50:13.744Z,0.60
2018-07-04T15:52:53.314Z,0.90
2018-07-04T15:55:32.722Z,0.70
2018-07-04T15:58:12.264Z,0.70
2018-07-04T16:00:52.644Z,0.60
2018-07-04T16:03:32.368Z,0.70
2018-07-04T16:06:11.926Z,0.70
2018-07-04T16:08:45.641Z,0.50
2018-07-04T16:11:25.089Z,0.50
2018-07-04T16:14:04.664Z,0.60
2018-07-04T16:16:44.549Z,0.50
2018-07-04T16:19:24.038Z,0.53
2018-07-04T16:22:03.615Z,0.80
2018-07-04T16:24:43.123Z,0.40
2018-07-04T16:27:22.673Z,0.40
2018-07-04T16:30:02.251Z,0.40
2018-07-04T16:32:41.863Z,0.60
2018-07-04T16:35:21.416Z,0.60
2018-07-04T16:38:01.149Z,1.00
2018-07-04T16:40:40.807Z,0.50
2018-07-04T16:43:20.308Z,0.47
2018-07-04T16:45:59.809Z,0.50
2018-07-04T16:48:33.391Z,0.60
2018-07-04T16:51:12.915Z,0.50
2018-07-04T16:53:52.667Z,0.97
2018-07-04T16:56:32.208Z,0.60
2018-07-04T16:59:11.929Z,0.60
2018-07-04T17:01:51.462Z,0.83
2018-07-04T17:04:30.914Z,0.77
2018-07-04T17:07:10.711Z,0.83
2018-07-04T17:09:44.262Z,1.00
2018-07-04T17:12:23.814Z,0.80
2018-07-04T17:15:03.567Z,0.80
2018-07-04T17:17:43.037Z,1.30
2018-07-04T17:20:22.618Z,2.47
2018-07-04T17:23:02.319Z,1.60
2018-07-04T17:25:41.882Z,2.43
2018-07-04T17:28:21.444Z,2.20
2018-07-04T17:31:01.153Z,2.53
2018-07-04T17:33:40.866Z,2.33
2018-07-04T17:36:20.561Z,2.37
2018-07-04T17:39:00.172Z,1.97
2018-07-04T17:41:39.826Z,2.20
2018-07-04T17:44:19.374Z,2.63
2018-07-04T17:46:58.998Z,1.90
2018-07-04T17:49:38.608Z,2.23
2018-07-04T17:52:18.243Z,1.63
2018-07-04T17:54:57.836Z,1.30
2018-07-04T17:57:37.569Z,1.50
2018-07-04T18:00:11.348Z,1.50
2018-07-04T18:02:50.879Z,1.30
2018-07-04T18:05:30.338Z,1.20
2018-07-04T18:08:09.886Z,1.13
2018-07-04T18:10:49.431Z,1.30
2018-07-04T18:13:29.033Z,1.10
2018-07-04T18:16:08.905Z,1.10
2018-07-04T18:18:48.548Z,1.27
2018-07-04T18:21:28.049Z,1.40
2018-07-04T18:24:08.489Z,1.10
2018-07-04T18:26:48.196Z,1.60
2018-07-04T18:29:27.772Z,1.47
2018-07-04T18:32:07.864Z,1.13
2018-07-04T18:34:47.591Z,1.30
2018-07-04T18:37:27.576Z,0.93
2018-07-04T18:40:07.157Z,1.10
2018-07-04T18:42:46.662Z,1.17
2018-07-04T18:45:26.429Z,1.20
2018-07-04T18:48:06.439Z,1.13
2018-07-04T18:50:46.132Z,0.87
2018-07-04T18:53:25.664Z,1.10
2018-07-04T18:56:05.187Z,1.03
2018-07-04T18:58:45.298Z,0.90
2018-07-04T19:01:24.914Z,1.00
2018-07-04T19:04:04.504Z,0.87
2018-07-04T19:06:44.464Z,0.80
2018-07-04T19:09:24.024Z,1.17
2018-07-04T19:12:03.697Z,0.67
2018-07-04T19:14:37.199Z,0.70
2018-07-04T19:17:16.798Z,1.00
2018-07-04T19:19:56.381Z,0.63
2018-07-04T19:22:35.926Z,0.60
2018-07-04T19:25:15.578Z,0.80
2018-07-04T19:27:55.168Z,0.90
2018-07-04T19:30:34.709Z,0.70
2018-07-04T19:33:14.408Z,0.80
2018-07-04T19:35:53.992Z,0.60
2018-07-04T19:38:33.635Z,0.90
2018-07-04T19:41:13.286Z,0.90
2018-07-04T19:43:52.805Z,1.10
2018-07-04T19:46:32.463Z,0.70
2018-07-04T19:49:12.710Z,0.70
2018-07-04T19:51:52.530Z,0.50
2018-07-04T19:54:32.032Z,0.57
2018-07-04T19:57:11.552Z,0.67
2018-07-04T19:59:51.033Z,0.40
2018-07-04T20:02:30.695Z,0.80
2018-07-04T20:05:11.159Z,0.30
2018-07-04T20:07:50.804Z,0.93
2018-07-04T20:10:30.497Z,1.00
2018-07-04T20:13:10.239Z,1.20
2018-07-04T20:15:49.911Z,0.87
2018-07-04T20:18:29.579Z,1.20
2018-07-04T20:21:09.247Z,1.40
2018-07-04T20:23:48.807Z,0.97
2018-07-04T20:26:28.395Z,1.30
2018-07-04T20:29:08.117Z,1.10
2018-07-04T20:31:47.868Z,1.00
2018-07-04T20:34:27.435Z,0.97
2018-07-04T20:37:07.104Z,0.70
2018-07-04T20:39:46.613Z,0.70
2018-07-04T20:42:26.235Z,0.60
2018-07-04T20:45:05.732Z,0.73
2018-07-04T20:47:45.464Z,0.70
2018-07-04T20:50:25.018Z,0.80
2018-07-04T20:53:04.671Z,1.27
2018-07-04T20:55:44.356Z,0.30
2018-07-04T20:58:24.033Z,0.87
2018-07-04T21:01:03.714Z,0.80
2018-07-04T21:03:43.389Z,0.80
2018-07-04T21:06:23.019Z,0.73
2018-07-04T21:09:02.737Z,0.90
2018-07-04T21:11:42.248Z,1.03
2018-07-04T21:14:21.832Z,0.67
2018-07-04T21:16:55.602Z,0.60
2018-07-04T21:19:35.151Z,0.70
2018-07-04T21:22:14.694Z,0.70
2018-07-04T21:24:54.201Z,0.70
2018-07-04T21:27:34.007Z,0.70
2018-07-04T21:30:13.588Z,1.07
2018-07-04T21:32:53.131Z,1.17
2018-07-04T21:35:32.909Z,0.87
2018-07-04T21:38:12.312Z,0.60
2018-07-04T21:40:52.025Z,0.80
2018-07-04T21:43:31.532Z,1.33
2018-07-04T21:46:11.034Z,0.60
2018-07-04T21:48:50.706Z,0.97
2018-07-04T21:51:30.386Z,1.17
2018-07-04T21:54:09.906Z,1.00
2018-07-04T21:56:49.570Z,1.47
2018-07-04T21:59:29.118Z,1.30
2018-07-04T22:02:08.760Z,0.87
2018-07-04T22:04:48.444Z,0.73
2018-07-04T22:07:27.949Z,0.77
2018-07-04T22:10:07.505Z,0.80
2018-07-04T22:12:47.233Z,0.60
2018-07-04T22:15:26.744Z,0.50
2018-07-04T22:18:06.462Z,1.90
2018-07-04T22:20:46.260Z,0.77
2018-07-04T22:23:26.524Z,0.70
2018-07-04T22:26:06.191Z,0.87
2018-07-04T22:28:45.755Z,0.70
2018-07-04T22:31:25.424Z,1.00
2018-07-04T22:34:05.128Z,1.07
2018-07-04T22:36:44.852Z,1.10
2018-07-04T22:39:24.451Z,1.93
2018-07-04T22:42:04.139Z,2.50
2018-07-04T22:44:43.781Z,1.80
2018-07-04T22:47:23.411Z,2.33
2018-07-04T22:50:03.075Z,2.10
2018-07-04T22:52:42.733Z,2.03
2018-07-04T22:55:22.452Z,1.60
2018-07-04T22:58:01.939Z,2.07
2018-07-04T23:00:41.493Z,2.23
2018-07-04T23:03:21.029Z,2.10
2018-07-04T23:06:00.561Z,3.27
2018-07-04T23:08:40.194Z,2.07
2018-07-04T23:11:19.883Z,1.37
2018-07-04T23:13:53.642Z,1.40
2018-07-04T23:16:33.124Z,1.40
2018-07-04T23:19:12.803Z,1.90
2018-07-04T23:21:52.508Z,1.97
2018-07-04T23:24:32.298Z,2.37
2018-07-04T23:27:12.038Z,2.00
2018-07-04T23:29:51.683Z,2.30
2018-07-04T23:32:31.324Z,2.27
2018-07-04T23:35:10.862Z,2.70
2018-07-04T23:37:50.471Z,2.50
2018-07-04T23:40:30.265Z,1.60
2018-07-04T23:43:10.154Z,1.43
2018-07-04T23:45:50.181Z,1.40
2018-07-04T23:48:29.756Z,1.60
2018-07-04T23:51:09.232Z,2.10
2018-07-04T23:53:49.422Z,2.10
2018-07-04T23:56:29.054Z,2.37
2018-07-04T23:59:08.798Z,2.30
